Terminal Aerodrome Forecast
Issued by NWS

Home | Current Version | Previous Version | Text Only | Print | Product List | Glossary On
Versions: 1 2 3 4 5 6 7 8 9 10 11 12 13 14 15
000
FTUS43 KJKL 302320
TAFSME
TAF
KSME 302320Z 3100/3124 16004KT P6SM SCT040 BKN250
     FM310600 VRB05KT P6SM FEW025 SCT040 BKN120
     FM310900 VRB03KT 4SM BR SCT100 SCT250
     FM311300 VRB03KT P6SM FEW030 SCT100 SCT250
     FM311500 VRB05KT P6SM SCT030 BKN045=

USA.gov is the U.S. government's official web portal to all federal, state and local government web resources and services.